createdAt,value
2022-09-12T00:01:24.393Z,19.40
2022-09-12T00:03:58.751Z,19.40
2022-09-12T00:06:33.124Z,19.40
2022-09-12T00:09:13.724Z,19.40
2022-09-12T00:11:44.605Z,19.30
2022-09-12T00:14:18.130Z,19.30
2022-09-12T00:16:45.565Z,19.20
2022-09-12T00:19:13.349Z,19.10
2022-09-12T00:21:41.800Z,19.10
2022-09-12T00:24:10.618Z,19.10
2022-09-12T00:26:38.030Z,19.00
2022-09-12T00:29:05.134Z,19.00
2022-09-12T00:31:32.960Z,19.10
2022-09-12T00:34:01.535Z,19.10
2022-09-12T00:36:30.737Z,19.10
2022-09-12T00:38:58.873Z,19.20
2022-09-12T00:41:37.675Z,19.20
2022-09-12T00:44:23.252Z,19.20
2022-09-12T00:47:29.810Z,19.20
2022-09-12T00:50:13.845Z,19.20
2022-09-12T00:52:52.188Z,19.20
2022-09-12T00:55:25.370Z,19.20
2022-09-12T00:57:58.536Z,19.20
2022-09-12T01:00:27.978Z,19.10
2022-09-12T01:03:07.884Z,19.10
2022-09-12T01:05:39.538Z,19.00
2022-09-12T01:08:07.251Z,19.00
2022-09-12T01:10:38.455Z,19.00
2022-09-12T01:13:08.471Z,19.00
2022-09-12T01:15:38.752Z,18.90
2022-09-12T01:18:49.340Z,18.90
2022-09-12T01:21:31.476Z,18.80
2022-09-12T01:24:46.936Z,18.70
2022-09-12T01:27:32.584Z,18.60
2022-09-12T01:30:33.504Z,18.50
2022-09-12T01:33:22.072Z,18.40
2022-09-12T01:36:40.003Z,18.40
2022-09-12T01:39:25.587Z,18.30
2022-09-12T01:42:05.355Z,18.30
2022-09-12T01:44:41.216Z,18.20
2022-09-12T01:47:31.796Z,18.20
2022-09-12T01:50:18.983Z,18.10
2022-09-12T01:53:09.020Z,18.10
2022-09-12T01:56:05.596Z,18.10
2022-09-12T01:58:45.972Z,18.00
2022-09-12T02:01:21.156Z,18.00
2022-09-12T02:04:17.596Z,18.10
2022-09-12T02:07:25.683Z,18.20
2022-09-12T02:10:05.164Z,18.20
2022-09-12T02:12:44.233Z,18.30
2022-09-12T02:15:15.612Z,18.30
2022-09-12T02:17:45.626Z,18.30
2022-09-12T02:20:47.479Z,18.30
2022-09-12T02:23:26.514Z,18.30
2022-09-12T02:25:59.148Z,18.30
2022-09-12T02:28:31.536Z,18.30
2022-09-12T02:31:15.423Z,18.30
2022-09-12T02:34:08.387Z,18.30
2022-09-12T02:36:55.762Z,18.30
2022-09-12T02:39:23.592Z,18.30
2022-09-12T02:41:58.624Z,18.30
2022-09-12T02:44:28.661Z,18.30
2022-09-12T02:47:15.472Z,18.30
2022-09-12T02:49:42.775Z,18.30
2022-09-12T02:52:10.170Z,18.30
2022-09-12T02:54:38.193Z,18.30
2022-09-12T02:57:22.910Z,18.30
2022-09-12T03:00:10.183Z,18.30
2022-09-12T03:03:21.833Z,18.30
2022-09-12T03:06:01.463Z,18.30
2022-09-12T03:08:57.039Z,18.30
2022-09-12T03:11:49.073Z,18.30
2022-09-12T03:14:52.077Z,18.30
2022-09-12T03:17:42.308Z,18.30
2022-09-12T03:20:28.517Z,18.30
2022-09-12T03:23:08.793Z,18.30
2022-09-12T03:26:23.426Z,18.30
2022-09-12T03:28:52.193Z,18.30
2022-09-12T03:31:20.341Z,18.30
2022-09-12T03:33:47.612Z,18.20
2022-09-12T03:36:25.133Z,18.20
2022-09-12T03:38:52.491Z,18.20
2022-09-12T03:41:20.536Z,18.10
2022-09-12T03:43:48.472Z,18.10
2022-09-12T03:46:15.915Z,18.00
2022-09-12T03:48:43.495Z,18.00
2022-09-12T03:51:10.763Z,17.90
2022-09-12T03:53:38.329Z,17.80
2022-09-12T03:56:11.460Z,17.80
2022-09-12T03:58:39.462Z,17.80
2022-09-12T04:01:13.352Z,17.80
2022-09-12T04:03:42.720Z,17.70
2022-09-12T04:06:12.690Z,17.70
2022-09-12T04:08:40.332Z,17.60
2022-09-12T04:11:14.410Z,17.60
2022-09-12T04:13:44.927Z,17.50
2022-09-12T04:16:13.994Z,17.40
2022-09-12T04:18:41.677Z,17.40
2022-09-12T04:21:16.886Z,17.30
2022-09-12T04:23:44.548Z,17.30
2022-09-12T04:26:13.987Z,17.20
2022-09-12T04:28:41.945Z,17.20
2022-09-12T04:31:17.929Z,17.20
2022-09-12T04:33:45.727Z,17.20
2022-09-12T04:36:17.435Z,17.20
2022-09-12T04:38:46.745Z,17.20
2022-09-12T04:41:20.789Z,17.20
2022-09-12T04:43:52.537Z,17.20
2022-09-12T04:46:20.616Z,17.20
2022-09-12T04:48:51.344Z,17.10
2022-09-12T04:51:28.807Z,17.10
2022-09-12T04:53:59.446Z,17.10
2022-09-12T04:56:28.908Z,17.10
2022-09-12T04:59:00.909Z,17.20
2022-09-12T05:01:30.601Z,17.20
2022-09-12T05:03:59.859Z,17.20
2022-09-12T05:06:34.429Z,17.30
2022-09-12T05:09:04.246Z,17.30
2022-09-12T05:12:02.733Z,17.20
2022-09-12T05:14:23.502Z,17.20
2022-09-12T05:16:50.608Z,17.20
2022-09-12T05:19:17.760Z,17.20
2022-09-12T05:21:44.826Z,17.10
2022-09-12T05:24:12.419Z,17.20
2022-09-12T05:26:39.378Z,17.20
2022-09-12T05:29:07.284Z,17.20
2022-09-12T05:31:35.049Z,17.20
2022-09-12T05:34:07.054Z,17.10
2022-09-12T05:36:34.352Z,17.10
2022-09-12T05:39:02.085Z,17.20
2022-09-12T05:41:33.192Z,17.20
2022-09-12T05:44:03.859Z,17.20
2022-09-12T05:46:40.501Z,17.30
2022-09-12T05:49:13.312Z,17.30
2022-09-12T05:51:44.442Z,17.30
2022-09-12T05:54:18.758Z,17.30
2022-09-12T05:56:46.530Z,17.30
2022-09-12T05:59:19.110Z,17.40
2022-09-12T06:01:47.523Z,17.40
2022-09-12T06:04:15.258Z,17.40
2022-09-12T06:06:45.212Z,17.40
2022-09-12T06:09:14.999Z,17.40
2022-09-12T06:14:24.306Z,17.50
2022-09-12T06:16:51.286Z,17.50
2022-09-12T06:19:21.655Z,17.50
2022-09-12T06:21:49.854Z,17.60
2022-09-12T06:24:18.467Z,17.60
2022-09-12T06:26:47.341Z,17.70
2022-09-12T06:29:15.491Z,17.70
2022-09-12T06:31:45.500Z,17.80
2022-09-12T06:34:15.273Z,17.90
2022-09-12T06:36:48.520Z,17.90
2022-09-12T06:39:20.593Z,18.00
2022-09-12T06:41:50.707Z,18.10
2022-09-12T06:44:20.471Z,18.10
2022-09-12T06:46:49.219Z,18.10
2022-09-12T06:49:17.821Z,18.20
2022-09-12T06:51:45.458Z,18.30
2022-09-12T06:54:20.086Z,18.40
2022-09-12T06:56:47.145Z,18.50
2022-09-12T06:59:14.491Z,18.60
2022-09-12T07:01:42.170Z,18.70
2022-09-12T07:04:10.385Z,18.80
2022-09-12T07:06:41.248Z,18.90
2022-09-12T07:09:13.843Z,19.00
2022-09-12T07:11:42.591Z,19.10
2022-09-12T07:14:14.324Z,19.20
2022-09-12T07:16:42.621Z,19.20
2022-09-12T07:19:10.510Z,19.20
2022-09-12T07:21:40.306Z,19.30
2022-09-12T07:24:10.794Z,19.40
2022-09-12T07:26:40.188Z,19.50
2022-09-12T07:29:36.383Z,19.60
2022-09-12T07:31:58.287Z,19.70
2022-09-12T07:34:25.823Z,19.80
2022-09-12T07:36:53.000Z,19.90
2022-09-12T07:39:20.110Z,20.00
2022-09-12T07:41:47.288Z,20.10
2022-09-12T07:44:14.479Z,20.30
2022-09-12T07:46:41.481Z,20.40
2022-09-12T07:49:08.702Z,20.50
2022-09-12T07:51:35.969Z,20.70
2022-09-12T07:54:08.559Z,20.90
2022-09-12T07:56:39.248Z,21.20
2022-09-12T07:59:08.218Z,21.40
2022-09-12T08:01:35.489Z,21.70
2022-09-12T08:04:04.829Z,22.00
2022-09-12T08:06:33.762Z,22.30
2022-09-12T08:09:01.947Z,22.60
2022-09-12T08:11:30.403Z,23.00
2022-09-12T08:13:58.857Z,23.30
2022-09-12T08:16:32.126Z,23.60
2022-09-12T08:19:01.903Z,23.80
2022-09-12T08:21:31.727Z,24.00
2022-09-12T08:24:02.496Z,24.10
2022-09-12T08:26:30.884Z,24.20
2022-09-12T08:28:58.122Z,24.30
2022-09-12T08:34:17.091Z,24.70
2022-09-12T08:36:45.385Z,24.90
2022-09-12T08:39:14.350Z,25.10
2022-09-12T08:41:48.015Z,25.30
2022-09-12T08:44:36.603Z,25.50
2022-09-12T08:47:22.030Z,25.70
2022-09-12T08:50:10.144Z,25.90
2022-09-12T08:52:52.293Z,26.10
2022-09-12T08:55:25.009Z,26.20
2022-09-12T08:57:52.876Z,26.40
2022-09-12T09:00:21.619Z,26.50
2022-09-12T09:03:14.257Z,26.60
2022-09-12T09:05:52.606Z,26.60
2022-09-12T09:09:01.376Z,26.60
2022-09-12T09:11:37.970Z,26.60
2022-09-12T09:14:37.331Z,26.60
2022-09-12T09:17:11.906Z,26.60
2022-09-12T09:19:50.788Z,26.70
2022-09-12T09:22:48.988Z,26.80
2022-09-12T09:25:34.826Z,27.00
2022-09-12T09:28:15.937Z,27.20
2022-09-12T09:30:45.899Z,27.50
2022-09-12T09:33:27.058Z,27.70
2022-09-12T09:36:06.963Z,28.00
2022-09-12T09:38:54.194Z,28.30
2022-09-12T09:42:09.437Z,28.70
2022-09-12T09:44:37.201Z,29.00
2022-09-12T09:47:05.258Z,29.40
2022-09-12T09:49:36.161Z,29.80
2022-09-12T09:52:06.580Z,30.10
2022-09-12T09:54:57.862Z,30.40
2022-09-12T09:57:41.264Z,30.70
2022-09-12T10:00:27.637Z,30.90
2022-09-12T10:03:05.029Z,31.00
2022-09-12T10:05:36.182Z,31.00
2022-09-12T10:08:07.394Z,30.90
2022-09-12T10:10:34.463Z,30.80
2022-09-12T10:13:15.545Z,30.90
2022-09-12T10:15:58.576Z,31.00
2022-09-12T10:18:42.533Z,31.20
2022-09-12T10:21:25.995Z,31.50
2022-09-12T10:24:24.843Z,31.70
2022-09-12T10:27:16.379Z,32.00
2022-09-12T10:29:52.582Z,32.20
2022-09-12T10:32:30.989Z,32.30
2022-09-12T10:35:04.504Z,32.40
2022-09-12T10:37:39.706Z,32.70
2022-09-12T10:40:23.860Z,32.90
2022-09-12T10:42:57.406Z,33.00
2022-09-12T10:45:37.609Z,33.00
2022-09-12T10:48:31.828Z,33.10
2022-09-12T10:51:00.902Z,33.10
2022-09-12T10:53:34.656Z,33.00
2022-09-12T10:56:23.275Z,33.00
2022-09-12T10:59:36.596Z,32.90
2022-09-12T11:02:58.660Z,32.70
2022-09-12T11:05:48.038Z,32.40
2022-09-12T11:08:40.361Z,32.10
2022-09-12T11:12:18.216Z,31.80
2022-09-12T11:15:07.875Z,31.50
2022-09-12T11:18:01.157Z,31.30
2022-09-12T11:20:53.812Z,31.20
2022-09-12T11:23:42.176Z,31.00
2022-09-12T11:26:39.097Z,30.80
2022-09-12T11:29:41.340Z,30.60
2022-09-12T11:32:27.541Z,30.40
2022-09-12T11:35:17.665Z,30.30
2022-09-12T11:38:32.835Z,30.20
2022-09-12T11:41:06.531Z,30.10
2022-09-12T11:43:42.524Z,29.90
2022-09-12T11:46:14.862Z,29.90
2022-09-12T11:48:55.571Z,29.80
2022-09-12T11:51:34.634Z,29.80
2022-09-12T11:54:23.241Z,29.80
2022-09-12T12:00:21.057Z,29.70
2022-09-12T12:03:07.051Z,29.60
2022-09-12T12:06:12.502Z,29.50
2022-09-12T12:08:43.055Z,29.50
2022-09-12T12:11:13.306Z,29.40
2022-09-12T12:13:55.917Z,29.40
2022-09-12T12:16:35.198Z,29.40
2022-09-12T12:19:15.765Z,29.40
2022-09-12T12:21:51.031Z,29.40
2022-09-12T12:24:22.345Z,29.60
2022-09-12T12:27:05.450Z,29.70
2022-09-12T12:29:35.917Z,29.80
2022-09-12T12:32:05.100Z,29.90
2022-09-12T12:34:38.841Z,30.10
2022-09-12T12:37:27.207Z,30.30
2022-09-12T12:40:09.295Z,30.50
2022-09-12T12:42:36.566Z,30.70
2022-09-12T12:45:09.926Z,30.90
2022-09-12T12:47:43.768Z,31.10
2022-09-12T12:50:11.177Z,31.30
2022-09-12T12:53:05.621Z,31.50
2022-09-12T12:56:01.386Z,31.70
2022-09-12T12:58:37.518Z,31.80
2022-09-12T13:01:22.814Z,31.80
2022-09-12T13:07:08.833Z,31.60
2022-09-12T13:09:48.168Z,31.60
2022-09-12T13:12:34.328Z,31.60
2022-09-12T13:15:04.652Z,31.60
2022-09-12T13:17:47.172Z,31.60
2022-09-12T13:20:28.305Z,31.60
2022-09-12T13:22:56.761Z,31.60
2022-09-12T13:25:26.533Z,31.60
2022-09-12T13:27:57.631Z,31.60
2022-09-12T13:30:25.044Z,31.60
2022-09-12T13:32:53.847Z,31.60
2022-09-12T13:35:27.719Z,31.50
2022-09-12T13:38:09.850Z,31.50
2022-09-12T13:40:51.515Z,31.40
2022-09-12T13:43:30.571Z,31.40
2022-09-12T13:45:57.734Z,31.30
2022-09-12T13:48:25.718Z,31.30
2022-09-12T13:51:00.807Z,31.20
2022-09-12T13:53:32.856Z,31.20
2022-09-12T13:56:01.566Z,31.10
2022-09-12T13:58:35.152Z,31.00
2022-09-12T14:01:13.702Z,30.90
2022-09-12T14:04:11.763Z,30.80
2022-09-12T14:06:52.720Z,30.70
2022-09-12T14:09:29.832Z,30.60
2022-09-12T14:11:57.919Z,30.50
2022-09-12T14:14:36.918Z,30.40
2022-09-12T14:17:25.302Z,30.20
2022-09-12T14:19:53.162Z,30.10
2022-09-12T14:22:20.705Z,30.00
2022-09-12T14:24:52.162Z,29.90
2022-09-12T14:27:25.782Z,29.80
2022-09-12T14:30:24.619Z,29.70
2022-09-12T14:33:10.280Z,29.50
2022-09-12T14:35:43.258Z,29.40
2022-09-12T14:38:44.203Z,29.30
2022-09-12T14:41:14.431Z,29.20
2022-09-12T14:43:45.991Z,29.20
2022-09-12T14:46:26.835Z,29.10
2022-09-12T14:49:01.068Z,29.00
2022-09-12T14:51:34.979Z,29.00
2022-09-12T14:54:02.800Z,28.90
2022-09-12T14:56:44.331Z,28.90
2022-09-12T14:59:33.266Z,28.80
2022-09-12T15:02:22.367Z,28.70
2022-09-12T15:05:15.699Z,28.70
2022-09-12T15:07:58.766Z,28.60
2022-09-12T15:10:38.552Z,28.50
2022-09-12T15:13:09.063Z,28.50
2022-09-12T15:15:38.975Z,28.40
2022-09-12T15:18:07.188Z,28.40
2022-09-12T15:20:39.231Z,28.40
2022-09-12T15:23:40.174Z,28.30
2022-09-12T15:26:08.386Z,28.20
2022-09-12T15:28:35.487Z,28.20
2022-09-12T15:31:12.022Z,28.10
2022-09-12T15:33:39.776Z,28.10
2022-09-12T15:36:16.496Z,28.10
2022-09-12T15:38:45.140Z,28.00
2022-09-12T15:41:18.112Z,28.00
2022-09-12T15:43:47.626Z,27.90
2022-09-12T15:46:17.489Z,27.90
2022-09-12T15:48:45.069Z,27.80
2022-09-12T15:51:15.791Z,27.80
2022-09-12T15:53:44.291Z,27.80
2022-09-12T15:56:12.031Z,27.70
2022-09-12T15:58:54.689Z,27.70
2022-09-12T16:01:25.663Z,27.60
2022-09-12T16:03:52.765Z,27.60
2022-09-12T16:06:22.702Z,27.50
2022-09-12T16:08:49.940Z,27.50
2022-09-12T16:11:27.324Z,27.50
2022-09-12T16:13:55.460Z,27.40
2022-09-12T16:16:22.670Z,27.40
2022-09-12T16:18:50.545Z,27.30
2022-09-12T16:21:18.132Z,27.30
2022-09-12T16:23:47.090Z,27.20
2022-09-12T16:26:15.102Z,27.20
2022-09-12T16:28:42.266Z,27.10
2022-09-12T16:31:13.103Z,27.10
2022-09-12T16:33:40.833Z,27.00
2022-09-12T16:36:12.461Z,27.00
2022-09-12T16:38:49.119Z,26.90
2022-09-12T16:41:18.412Z,26.80
2022-09-12T16:43:45.849Z,26.70
2022-09-12T16:46:14.281Z,26.60
2022-09-12T16:48:56.703Z,26.50
2022-09-12T16:51:31.744Z,26.40
2022-09-12T16:53:58.891Z,26.30
2022-09-12T16:56:26.475Z,26.20
2022-09-12T16:58:54.188Z,26.10
2022-09-12T17:01:24.411Z,26.00
2022-09-12T17:03:57.225Z,25.90
2022-09-12T17:06:25.817Z,25.80
2022-09-12T17:08:55.645Z,25.70
2022-09-12T17:11:36.353Z,25.60
2022-09-12T17:14:07.261Z,25.50
2022-09-12T17:16:42.336Z,25.40
2022-09-12T17:19:18.253Z,25.30
2022-09-12T17:21:48.844Z,25.20
2022-09-12T17:24:18.272Z,25.10
2022-09-12T17:26:46.126Z,25.00
2022-09-12T17:29:15.706Z,24.90
2022-09-12T17:31:43.972Z,24.80
2022-09-12T17:36:59.864Z,24.50
2022-09-12T17:39:27.058Z,24.40
2022-09-12T17:41:57.481Z,24.40
2022-09-12T17:44:24.702Z,24.30
2022-09-12T17:46:51.783Z,24.20
2022-09-12T17:49:20.883Z,24.10
2022-09-12T17:51:48.647Z,24.10
2022-09-12T17:54:20.978Z,24.00
2022-09-12T17:56:49.927Z,23.90
2022-09-12T17:59:20.718Z,23.80
2022-09-12T18:02:07.388Z,23.80
2022-09-12T18:04:34.953Z,23.70
2022-09-12T18:07:02.386Z,23.70
2022-09-12T18:09:32.784Z,23.60
2022-09-12T18:12:00.313Z,23.50
2022-09-12T18:14:28.917Z,23.50
2022-09-12T18:17:00.242Z,23.40
2022-09-12T18:19:28.274Z,23.40
2022-09-12T18:21:56.282Z,23.30
2022-09-12T18:24:23.863Z,23.20
2022-09-12T18:26:51.189Z,23.20
2022-09-12T18:29:20.102Z,23.10
2022-09-12T18:31:47.475Z,23.10
2022-09-12T18:34:16.164Z,23.00
2022-09-12T18:36:47.101Z,23.00
2022-09-12T18:39:15.473Z,22.90
2022-09-12T18:41:43.383Z,22.90
2022-09-12T18:44:12.627Z,22.80
2022-09-12T18:46:40.054Z,22.80
2022-09-12T18:49:09.246Z,22.70
2022-09-12T18:51:37.273Z,22.70
2022-09-12T18:54:13.664Z,22.60
2022-09-12T18:56:46.088Z,22.60
2022-09-12T18:59:15.300Z,22.50
2022-09-12T19:01:43.583Z,22.50
2022-09-12T19:04:13.297Z,22.40
2022-09-12T19:06:44.771Z,22.40
2022-09-12T19:09:16.134Z,22.30
2022-09-12T19:11:49.960Z,22.20
2022-09-12T19:14:26.202Z,22.20
2022-09-12T19:16:53.708Z,22.10
2022-09-12T19:19:21.559Z,22.10
2022-09-12T19:21:48.784Z,22.00
2022-09-12T19:24:17.968Z,22.00
2022-09-12T19:26:46.214Z,22.00
2022-09-12T19:29:16.563Z,21.90
2022-09-12T19:31:45.232Z,21.90
2022-09-12T19:34:13.564Z,21.80
2022-09-12T19:36:45.519Z,21.80
2022-09-12T19:39:14.132Z,21.80
2022-09-12T19:41:41.528Z,21.80
2022-09-12T19:44:09.193Z,21.70
2022-09-12T19:46:55.215Z,21.70
2022-09-12T19:49:22.621Z,21.60
2022-09-12T19:51:49.708Z,21.60
2022-09-12T19:54:16.889Z,21.60
2022-09-12T19:56:44.066Z,21.50
2022-09-12T19:59:11.650Z,21.50
2022-09-12T20:01:38.922Z,21.40
2022-09-12T20:04:08.742Z,21.40
2022-09-12T20:06:36.831Z,21.40
2022-09-12T20:09:04.589Z,21.40
2022-09-12T20:11:31.841Z,21.40
2022-09-12T20:13:58.928Z,21.30
2022-09-12T20:16:29.511Z,21.30
2022-09-12T20:19:08.573Z,21.30
2022-09-12T20:21:37.345Z,21.30
2022-09-12T20:24:12.389Z,21.30
2022-09-12T20:26:40.358Z,21.30
2022-09-12T20:29:08.788Z,21.20
2022-09-12T20:31:38.192Z,21.20
2022-09-12T20:34:05.989Z,21.20
2022-09-12T20:36:36.419Z,21.10
2022-09-12T20:39:04.967Z,21.10
2022-09-12T20:41:35.635Z,21.10
2022-09-12T20:44:06.115Z,21.10
2022-09-12T20:46:33.612Z,21.10
2022-09-12T20:49:05.505Z,21.10
2022-09-12T20:51:36.107Z,21.10
2022-09-12T20:54:07.232Z,21.10
2022-09-12T21:01:24.745Z,21.00
2022-09-12T21:03:59.674Z,20.90
2022-09-12T21:06:27.848Z,20.90
2022-09-12T21:09:19.194Z,20.80
2022-09-12T21:12:00.075Z,20.80
2022-09-12T21:14:36.282Z,20.80
2022-09-12T21:17:12.208Z,20.70
2022-09-12T21:19:42.269Z,20.70
2022-09-12T21:22:15.252Z,20.70
2022-09-12T21:24:43.082Z,20.70
2022-09-12T21:27:13.675Z,20.60
2022-09-12T21:30:01.668Z,20.60
2022-09-12T21:32:35.157Z,20.60
2022-09-12T21:35:26.172Z,20.60
2022-09-12T21:37:53.642Z,20.60
2022-09-12T21:40:24.194Z,20.60
2022-09-12T21:42:55.327Z,20.60
2022-09-12T21:45:22.882Z,20.50
2022-09-12T21:47:50.972Z,20.50
2022-09-12T21:50:18.967Z,20.50
2022-09-12T21:52:46.416Z,20.40
2022-09-12T21:55:14.483Z,20.40
2022-09-12T21:57:41.940Z,20.30
2022-09-12T22:00:15.307Z,20.30
2022-09-12T22:02:42.659Z,20.20
2022-09-12T22:05:10.460Z,20.20
2022-09-12T22:07:37.957Z,20.20
2022-09-12T22:10:08.470Z,20.20
2022-09-12T22:12:35.636Z,20.20
2022-09-12T22:15:23.002Z,20.20
2022-09-12T22:17:51.400Z,20.20
2022-09-12T22:20:18.389Z,20.20
2022-09-12T22:23:04.876Z,20.10
2022-09-12T22:25:32.506Z,20.10
2022-09-12T22:27:59.837Z,20.10
2022-09-12T22:30:27.302Z,20.10
2022-09-12T22:32:54.395Z,20.10
2022-09-12T22:35:21.782Z,20.10
2022-09-12T22:37:48.833Z,20.10
2022-09-12T22:40:15.991Z,20.10
2022-09-12T22:42:43.539Z,20.10
2022-09-12T22:45:11.419Z,20.10
2022-09-12T22:48:00.607Z,20.10
2022-09-12T22:50:28.580Z,20.00
2022-09-12T22:52:55.897Z,20.00
2022-09-12T22:55:44.261Z,20.00
2022-09-12T22:58:12.170Z,19.90
2022-09-12T23:00:39.326Z,19.90
2022-09-12T23:03:06.410Z,19.80
2022-09-12T23:05:40.977Z,19.80
2022-09-12T23:08:08.069Z,19.70
2022-09-12T23:10:37.592Z,19.60
2022-09-12T23:13:05.828Z,19.60
2022-09-12T23:15:33.686Z,19.60
2022-09-12T23:18:00.745Z,19.50
2022-09-12T23:20:28.150Z,19.50
2022-09-12T23:22:55.332Z,19.50
2022-09-12T23:25:23.605Z,19.50
2022-09-12T23:27:51.272Z,19.50
2022-09-12T23:30:21.463Z,19.50
2022-09-12T23:32:49.545Z,19.50
2022-09-12T23:35:20.851Z,19.40
2022-09-12T23:37:48.020Z,19.40
2022-09-12T23:40:15.350Z,19.40
2022-09-12T23:42:42.339Z,19.40
2022-09-12T23:45:10.366Z,19.40
2022-09-12T23:47:37.542Z,19.40
2022-09-12T23:50:04.988Z,19.40
2022-09-12T23:52:32.038Z,19.50
2022-09-12T23:54:59.022Z,19.50
2022-09-12T23:57:26.447Z,19.50
2022-09-12T23:59:53.758Z,19.60
